sensor_id;sensor_type;location;lat;lon;timestamp;temperature;humidity
68433;DHT22;55412;51.350;17.056;2022-09-09T00:00:26;18.30;78.80
68433;DHT22;55412;51.350;17.056;2022-09-09T00:03:03;18.30;78.70
68433;DHT22;55412;51.350;17.056;2022-09-09T00:09:17;18.30;78.60
68433;DHT22;55412;51.350;17.056;2022-09-09T00:11:51;18.20;78.30
68433;DHT22;55412;51.350;17.056;2022-09-09T00:17:04;18.20;78.40
68433;DHT22;55412;51.350;17.056;2022-09-09T00:23:05;18.10;78.10
68433;DHT22;55412;51.350;17.056;2022-09-09T00:25:51;18.10;78.00
68433;DHT22;55412;51.350;17.056;2022-09-09T00:28:27;18.10;77.70
68433;DHT22;55412;51.350;17.056;2022-09-09T00:31:04;18.10;77.70
68433;DHT22;55412;51.350;17.056;2022-09-09T00:33:38;18.10;77.70
68433;DHT22;55412;51.350;17.056;2022-09-09T00:36:12;18.10;77.60
68433;DHT22;55412;51.350;17.056;2022-09-09T00:39:04;18.10;77.60
68433;DHT22;55412;51.350;17.056;2022-09-09T00:44:37;18.00;77.70
68433;DHT22;55412;51.350;17.056;2022-09-09T00:58:13;17.90;77.60
68433;DHT22;55412;51.350;17.056;2022-09-09T01:01:12;17.90;77.60
68433;DHT22;55412;51.350;17.056;2022-09-09T01:03:52;17.90;77.50
68433;DHT22;55412;51.350;17.056;2022-09-09T01:06:26;17.90;77.60
68433;DHT22;55412;51.350;17.056;2022-09-09T01:12:07;17.80;77.80
68433;DHT22;55412;51.350;17.056;2022-09-09T01:14:44;17.80;77.40
68433;DHT22;55412;51.350;17.056;2022-09-09T01:17:26;17.80;77.50
68433;DHT22;55412;51.350;17.056;2022-09-09T01:20:00;17.80;77.20
68433;DHT22;55412;51.350;17.056;2022-09-09T01:28:46;17.80;77.00
68433;DHT22;55412;51.350;17.056;2022-09-09T01:31:28;17.80;76.90
68433;DHT22;55412;51.350;17.056;2022-09-09T01:33:57;17.70;76.80
68433;DHT22;55412;51.350;17.056;2022-09-09T01:36:28;17.70;76.70
68433;DHT22;55412;51.350;17.056;2022-09-09T01:38:58;17.70;76.70
68433;DHT22;55412;51.350;17.056;2022-09-09T01:41:24;17.70;76.80
68433;DHT22;55412;51.350;17.056;2022-09-09T01:43:52;17.70;76.60
68433;DHT22;55412;51.350;17.056;2022-09-09T01:46:21;17.70;76.60
68433;DHT22;55412;51.350;17.056;2022-09-09T01:48:50;17.70;76.60
68433;DHT22;55412;51.350;17.056;2022-09-09T01:51:17;17.70;76.40
68433;DHT22;55412;51.350;17.056;2022-09-09T01:53:43;17.60;76.40
68433;DHT22;55412;51.350;17.056;2022-09-09T01:59:44;17.60;76.30
68433;DHT22;55412;51.350;17.056;2022-09-09T02:08:18;17.50;76.10
68433;DHT22;55412;51.350;17.056;2022-09-09T02:13:47;17.50;76.10
68433;DHT22;55412;51.350;17.056;2022-09-09T02:16:23;17.50;76.20
68433;DHT22;55412;51.350;17.056;2022-09-09T02:19:36;17.50;76.10
68433;DHT22;55412;51.350;17.056;2022-09-09T02:22:04;17.50;76.10
68433;DHT22;55412;51.350;17.056;2022-09-09T02:24:33;17.50;75.90
68433;DHT22;55412;51.350;17.056;2022-09-09T02:27:03;17.50;75.90
68433;DHT22;55412;51.350;17.056;2022-09-09T02:29:34;17.50;75.70
68433;DHT22;55412;51.350;17.056;2022-09-09T02:32:06;17.50;75.50
68433;DHT22;55412;51.350;17.056;2022-09-09T02:34:44;17.60;75.80
68433;DHT22;55412;51.350;17.056;2022-09-09T02:37:12;17.60;75.60
68433;DHT22;55412;51.350;17.056;2022-09-09T02:39:41;17.60;75.50
68433;DHT22;55412;51.350;17.056;2022-09-09T02:42:07;17.50;75.40
68433;DHT22;55412;51.350;17.056;2022-09-09T02:44:34;17.60;75.20
68433;DHT22;55412;51.350;17.056;2022-09-09T02:47:13;17.60;75.20
68433;DHT22;55412;51.350;17.056;2022-09-09T02:50:13;17.60;75.30
68433;DHT22;55412;51.350;17.056;2022-09-09T02:53:18;17.60;74.60
68433;DHT22;55412;51.350;17.056;2022-09-09T02:55:58;17.50;74.80
68433;DHT22;55412;51.350;17.056;2022-09-09T02:58:31;17.50;74.90
68433;DHT22;55412;51.350;17.056;2022-09-09T03:00:57;17.50;74.70
68433;DHT22;55412;51.350;17.056;2022-09-09T03:03:26;17.50;74.70
68433;DHT22;55412;51.350;17.056;2022-09-09T03:05:52;17.50;74.50
68433;DHT22;55412;51.350;17.056;2022-09-09T03:08:18;17.50;74.00
68433;DHT22;55412;51.350;17.056;2022-09-09T03:10:45;17.50;74.30
68433;DHT22;55412;51.350;17.056;2022-09-09T03:13:10;17.40;73.70
68433;DHT22;55412;51.350;17.056;2022-09-09T03:15:38;17.40;73.90
68433;DHT22;55412;51.350;17.056;2022-09-09T03:18:04;17.40;74.00
68433;DHT22;55412;51.350;17.056;2022-09-09T03:20:30;17.40;74.60
68433;DHT22;55412;51.350;17.056;2022-09-09T03:22:57;17.40;72.90
68433;DHT22;55412;51.350;17.056;2022-09-09T03:25:24;17.30;72.80
68433;DHT22;55412;51.350;17.056;2022-09-09T03:27:50;17.20;73.30
68433;DHT22;55412;51.350;17.056;2022-09-09T03:30:21;17.20;73.10
68433;DHT22;55412;51.350;17.056;2022-09-09T03:32:49;17.20;72.50
68433;DHT22;55412;51.350;17.056;2022-09-09T03:35:15;17.10;72.30
68433;DHT22;55412;51.350;17.056;2022-09-09T03:37:42;17.00;72.70
68433;DHT22;55412;51.350;17.056;2022-09-09T03:40:08;17.00;72.90
68433;DHT22;55412;51.350;17.056;2022-09-09T03:42:36;16.90;73.40
68433;DHT22;55412;51.350;17.056;2022-09-09T03:45:05;16.90;73.80
68433;DHT22;55412;51.350;17.056;2022-09-09T03:47:32;16.90;73.60
68433;DHT22;55412;51.350;17.056;2022-09-09T03:49:58;16.80;73.20
68433;DHT22;55412;51.350;17.056;2022-09-09T03:52:24;16.80;73.60
68433;DHT22;55412;51.350;17.056;2022-09-09T03:54:52;16.80;74.00
68433;DHT22;55412;51.350;17.056;2022-09-09T03:57:19;16.80;74.10
68433;DHT22;55412;51.350;17.056;2022-09-09T03:59:45;16.80;73.90
68433;DHT22;55412;51.350;17.056;2022-09-09T04:02:11;16.70;74.60
68433;DHT22;55412;51.350;17.056;2022-09-09T04:04:38;16.70;74.50
68433;DHT22;55412;51.350;17.056;2022-09-09T04:07:04;16.70;74.40
68433;DHT22;55412;51.350;17.056;2022-09-09T04:09:33;16.60;74.30
68433;DHT22;55412;51.350;17.056;2022-09-09T04:12:00;16.50;74.40
68433;DHT22;55412;51.350;17.056;2022-09-09T04:14:26;16.50;74.40
68433;DHT22;55412;51.350;17.056;2022-09-09T04:16:54;16.40;74.40
68433;DHT22;55412;51.350;17.056;2022-09-09T04:19:23;16.40;74.40
68433;DHT22;55412;51.350;17.056;2022-09-09T04:21:49;16.40;74.40
68433;DHT22;55412;51.350;17.056;2022-09-09T04:24:17;16.40;74.40
68433;DHT22;55412;51.350;17.056;2022-09-09T04:26:43;16.40;74.60
68433;DHT22;55412;51.350;17.056;2022-09-09T04:29:10;16.40;74.40
68433;DHT22;55412;51.350;17.056;2022-09-09T04:31:36;16.30;74.20
68433;DHT22;55412;51.350;17.056;2022-09-09T04:34:08;16.30;74.10
68433;DHT22;55412;51.350;17.056;2022-09-09T04:36:34;16.30;74.50
68433;DHT22;55412;51.350;17.056;2022-09-09T04:39:01;16.40;75.10
68433;DHT22;55412;51.350;17.056;2022-09-09T04:41:27;16.50;74.90
68433;DHT22;55412;51.350;17.056;2022-09-09T04:43:54;16.60;75.20
68433;DHT22;55412;51.350;17.056;2022-09-09T04:46:21;16.70;74.30
68433;DHT22;55412;51.350;17.056;2022-09-09T04:48:49;16.80;74.00
68433;DHT22;55412;51.350;17.056;2022-09-09T04:51:15;16.90;74.10
68433;DHT22;55412;51.350;17.056;2022-09-09T04:53:41;17.10;74.00
68433;DHT22;55412;51.350;17.056;2022-09-09T04:56:12;17.20;73.50
68433;DHT22;55412;51.350;17.056;2022-09-09T04:58:40;17.30;72.60
68433;DHT22;55412;51.350;17.056;2022-09-09T05:01:19;17.40;72.50
68433;DHT22;55412;51.350;17.056;2022-09-09T05:03:47;17.50;72.40
68433;DHT22;55412;51.350;17.056;2022-09-09T05:06:18;17.60;72.10
68433;DHT22;55412;51.350;17.056;2022-09-09T05:08:45;17.70;72.40
68433;DHT22;55412;51.350;17.056;2022-09-09T05:13:45;17.90;71.70
68433;DHT22;55412;51.350;17.056;2022-09-09T05:16:12;18.10;72.00
68433;DHT22;55412;51.350;17.056;2022-09-09T05:18:39;18.20;71.60
68433;DHT22;55412;51.350;17.056;2022-09-09T05:21:07;18.40;71.60
68433;DHT22;55412;51.350;17.056;2022-09-09T05:23:36;18.50;71.70
68433;DHT22;55412;51.350;17.056;2022-09-09T05:26:03;18.70;71.10
68433;DHT22;55412;51.350;17.056;2022-09-09T05:28:30;18.80;71.10
68433;DHT22;55412;51.350;17.056;2022-09-09T05:31:00;18.90;70.10
68433;DHT22;55412;51.350;17.056;2022-09-09T05:33:31;19.00;70.00
68433;DHT22;55412;51.350;17.056;2022-09-09T05:35:59;19.10;69.60
68433;DHT22;55412;51.350;17.056;2022-09-09T05:38:31;19.20;69.20
68433;DHT22;55412;51.350;17.056;2022-09-09T05:40:59;19.30;69.30
68433;DHT22;55412;51.350;17.056;2022-09-09T05:43:26;19.30;69.70
68433;DHT22;55412;51.350;17.056;2022-09-09T05:46:01;19.30;69.80
68433;DHT22;55412;51.350;17.056;2022-09-09T05:48:35;19.40;69.30
68433;DHT22;55412;51.350;17.056;2022-09-09T05:51:04;19.50;68.90
68433;DHT22;55412;51.350;17.056;2022-09-09T05:53:32;19.50;68.80
68433;DHT22;55412;51.350;17.056;2022-09-09T05:56:11;19.50;68.40
68433;DHT22;55412;51.350;17.056;2022-09-09T05:58:41;19.70;69.00
68433;DHT22;55412;51.350;17.056;2022-09-09T06:01:26;19.80;68.80
68433;DHT22;55412;51.350;17.056;2022-09-09T06:03:54;20.00;68.20
68433;DHT22;55412;51.350;17.056;2022-09-09T06:06:23;20.10;68.30
68433;DHT22;55412;51.350;17.056;2022-09-09T06:09:03;20.30;67.10
68433;DHT22;55412;51.350;17.056;2022-09-09T06:11:36;20.50;67.20
68433;DHT22;55412;51.350;17.056;2022-09-09T06:14:05;20.70;66.40
68433;DHT22;55412;51.350;17.056;2022-09-09T06:16:32;20.90;65.30
68433;DHT22;55412;51.350;17.056;2022-09-09T06:18:59;21.00;65.10
68433;DHT22;55412;51.350;17.056;2022-09-09T06:21:31;21.20;65.00
68433;DHT22;55412;51.350;17.056;2022-09-09T06:23:59;21.30;63.20
68433;DHT22;55412;51.350;17.056;2022-09-09T06:26:38;21.40;62.60
68433;DHT22;55412;51.350;17.056;2022-09-09T06:29:09;21.50;62.60
68433;DHT22;55412;51.350;17.056;2022-09-09T06:31:36;21.60;63.30
68433;DHT22;55412;51.350;17.056;2022-09-09T06:34:05;21.70;62.80
68433;DHT22;55412;51.350;17.056;2022-09-09T06:36:35;21.80;61.30
68433;DHT22;55412;51.350;17.056;2022-09-09T06:39:03;22.00;61.10
68433;DHT22;55412;51.350;17.056;2022-09-09T06:41:31;22.10;61.10
68433;DHT22;55412;51.350;17.056;2022-09-09T06:43:58;22.30;61.30
68433;DHT22;55412;51.350;17.056;2022-09-09T06:46:29;22.40;59.20
68433;DHT22;55412;51.350;17.056;2022-09-09T06:48:58;22.40;58.90
68433;DHT22;55412;51.350;17.056;2022-09-09T06:51:30;22.60;59.20
68433;DHT22;55412;51.350;17.056;2022-09-09T06:53:58;22.70;58.60
68433;DHT22;55412;51.350;17.056;2022-09-09T06:56:31;22.70;57.10
68433;DHT22;55412;51.350;17.056;2022-09-09T06:59:00;22.70;57.80
68433;DHT22;55412;51.350;17.056;2022-09-09T07:01:34;22.60;57.80
68433;DHT22;55412;51.350;17.056;2022-09-09T07:04:03;22.50;58.70
68433;DHT22;55412;51.350;17.056;2022-09-09T07:06:35;22.40;58.40
68433;DHT22;55412;51.350;17.056;2022-09-09T07:09:07;22.20;59.70
68433;DHT22;55412;51.350;17.056;2022-09-09T07:11:40;22.30;60.30
68433;DHT22;55412;51.350;17.056;2022-09-09T07:14:08;22.20;59.30
68433;DHT22;55412;51.350;17.056;2022-09-09T07:16:34;22.10;60.00
68433;DHT22;55412;51.350;17.056;2022-09-09T07:19:03;22.10;61.40
68433;DHT22;55412;51.350;17.056;2022-09-09T07:21:31;22.20;61.40
68433;DHT22;55412;51.350;17.056;2022-09-09T07:23:59;22.20;60.20
68433;DHT22;55412;51.350;17.056;2022-09-09T07:26:28;22.30;60.50
68433;DHT22;55412;51.350;17.056;2022-09-09T07:28:56;22.30;60.50
68433;DHT22;55412;51.350;17.056;2022-09-09T07:31:37;22.10;60.30
68433;DHT22;55412;51.350;17.056;2022-09-09T07:34:05;22.00;60.10
68433;DHT22;55412;51.350;17.056;2022-09-09T07:36:34;21.90;60.70
68433;DHT22;55412;51.350;17.056;2022-09-09T07:39:07;21.90;61.10
68433;DHT22;55412;51.350;17.056;2022-09-09T07:41:43;21.90;61.80
68433;DHT22;55412;51.350;17.056;2022-09-09T07:44:16;22.00;60.50
68433;DHT22;55412;51.350;17.056;2022-09-09T07:46:44;22.10;61.50
68433;DHT22;55412;51.350;17.056;2022-09-09T07:49:11;22.30;60.60
68433;DHT22;55412;51.350;17.056;2022-09-09T07:51:40;22.30;59.30
68433;DHT22;55412;51.350;17.056;2022-09-09T07:54:09;22.30;58.90
68433;DHT22;55412;51.350;17.056;2022-09-09T07:56:37;22.20;58.60
68433;DHT22;55412;51.350;17.056;2022-09-09T07:59:05;22.20;59.50
68433;DHT22;55412;51.350;17.056;2022-09-09T08:01:43;22.30;60.40
68433;DHT22;55412;51.350;17.056;2022-09-09T08:04:13;22.40;59.10
68433;DHT22;55412;51.350;17.056;2022-09-09T08:06:49;22.40;58.50
68433;DHT22;55412;51.350;17.056;2022-09-09T08:09:17;22.40;58.80
68433;DHT22;55412;51.350;17.056;2022-09-09T08:11:43;22.40;59.50
68433;DHT22;55412;51.350;17.056;2022-09-09T08:14:11;22.40;59.90
68433;DHT22;55412;51.350;17.056;2022-09-09T08:16:40;22.20;58.50
68433;DHT22;55412;51.350;17.056;2022-09-09T08:19:08;22.10;59.20
68433;DHT22;55412;51.350;17.056;2022-09-09T08:21:36;22.00;60.70
68433;DHT22;55412;51.350;17.056;2022-09-09T08:24:05;22.20;62.50
68433;DHT22;55412;51.350;17.056;2022-09-09T08:26:35;22.40;58.30
68433;DHT22;55412;51.350;17.056;2022-09-09T08:29:05;22.50;60.40
68433;DHT22;55412;51.350;17.056;2022-09-09T08:31:40;22.80;60.90
68433;DHT22;55412;51.350;17.056;2022-09-09T08:34:15;23.00;58.70
68433;DHT22;55412;51.350;17.056;2022-09-09T08:36:43;23.20;59.50
68433;DHT22;55412;51.350;17.056;2022-09-09T08:39:12;23.30;56.00
68433;DHT22;55412;51.350;17.056;2022-09-09T08:47:25;23.10;56.80
68433;DHT22;55412;51.350;17.056;2022-09-09T08:50:32;23.10;56.60
68433;DHT22;55412;51.350;17.056;2022-09-09T08:55:54;23.20;56.10
68433;DHT22;55412;51.350;17.056;2022-09-09T08:58:27;23.30;56.50
68433;DHT22;55412;51.350;17.056;2022-09-09T09:04:53;23.40;56.30
68433;DHT22;55412;51.350;17.056;2022-09-09T09:07:24;23.40;55.70
68433;DHT22;55412;51.350;17.056;2022-09-09T09:13:19;23.40;57.10
68433;DHT22;55412;51.350;17.056;2022-09-09T09:15:57;23.30;55.60
68433;DHT22;55412;51.350;17.056;2022-09-09T09:18:27;23.30;56.60
68433;DHT22;55412;51.350;17.056;2022-09-09T09:21:16;23.40;57.20
68433;DHT22;55412;51.350;17.056;2022-09-09T09:23:59;23.60;57.00
68433;DHT22;55412;51.350;17.056;2022-09-09T09:26:31;23.60;57.40
68433;DHT22;55412;51.350;17.056;2022-09-09T09:29:09;23.70;56.50
68433;DHT22;55412;51.350;17.056;2022-09-09T09:31:37;23.90;56.00
68433;DHT22;55412;51.350;17.056;2022-09-09T09:34:03;23.90;54.40
68433;DHT22;55412;51.350;17.056;2022-09-09T09:36:42;24.00;55.50
68433;DHT22;55412;51.350;17.056;2022-09-09T09:39:30;24.10;53.90
68433;DHT22;55412;51.350;17.056;2022-09-09T09:42:10;24.20;53.60
68433;DHT22;55412;51.350;17.056;2022-09-09T09:44:40;24.30;52.40
68433;DHT22;55412;51.350;17.056;2022-09-09T09:47:11;24.30;53.80
68433;DHT22;55412;51.350;17.056;2022-09-09T09:49:51;24.30;54.80
68433;DHT22;55412;51.350;17.056;2022-09-09T09:52:25;24.30;53.70
68433;DHT22;55412;51.350;17.056;2022-09-09T09:54:55;24.30;55.10
68433;DHT22;55412;51.350;17.056;2022-09-09T09:57:28;24.40;53.90
68433;DHT22;55412;51.350;17.056;2022-09-09T10:00:14;24.40;54.20
68433;DHT22;55412;51.350;17.056;2022-09-09T10:02:43;24.40;53.80
68433;DHT22;55412;51.350;17.056;2022-09-09T10:05:20;24.50;54.30
68433;DHT22;55412;51.350;17.056;2022-09-09T10:07:59;24.60;54.50
68433;DHT22;55412;51.350;17.056;2022-09-09T10:13:39;24.80;51.00
68433;DHT22;55412;51.350;17.056;2022-09-09T10:19:14;24.60;50.80
68433;DHT22;55412;51.350;17.056;2022-09-09T10:22:32;24.40;51.10
68433;DHT22;55412;51.350;17.056;2022-09-09T10:25:14;24.30;53.40
68433;DHT22;55412;51.350;17.056;2022-09-09T10:36:58;23.90;53.70
68433;DHT22;55412;51.350;17.056;2022-09-09T10:39:36;23.90;56.80
68433;DHT22;55412;51.350;17.056;2022-09-09T10:42:12;24.10;55.60
68433;DHT22;55412;51.350;17.056;2022-09-09T10:45:17;24.20;55.60
68433;DHT22;55412;51.350;17.056;2022-09-09T10:50:49;24.30;54.30
68433;DHT22;55412;51.350;17.056;2022-09-09T10:56:33;24.30;53.10
68433;DHT22;55412;51.350;17.056;2022-09-09T10:59:17;24.30;54.30
68433;DHT22;55412;51.350;17.056;2022-09-09T11:02:12;24.50;54.60
68433;DHT22;55412;51.350;17.056;2022-09-09T11:04:53;24.60;54.20
68433;DHT22;55412;51.350;17.056;2022-09-09T11:07:41;24.80;52.30
68433;DHT22;55412;51.350;17.056;2022-09-09T11:13:04;25.00;52.20
68433;DHT22;55412;51.350;17.056;2022-09-09T11:15:45;25.10;53.50
68433;DHT22;55412;51.350;17.056;2022-09-09T11:18:19;25.20;51.60
68433;DHT22;55412;51.350;17.056;2022-09-09T11:20:58;25.30;53.80
68433;DHT22;55412;51.350;17.056;2022-09-09T11:23:37;25.40;51.30
68433;DHT22;55412;51.350;17.056;2022-09-09T11:26:08;25.50;51.70
68433;DHT22;55412;51.350;17.056;2022-09-09T11:29:43;25.60;51.60
68433;DHT22;55412;51.350;17.056;2022-09-09T11:36:10;25.90;50.20
68433;DHT22;55412;51.350;17.056;2022-09-09T11:38:29;26.00;49.60
68433;DHT22;55412;51.350;17.056;2022-09-09T11:41:06;26.10;49.30
68433;DHT22;55412;51.350;17.056;2022-09-09T11:43:48;26.20;49.20
68433;DHT22;55412;51.350;17.056;2022-09-09T11:46:22;26.20;46.30
68433;DHT22;55412;51.350;17.056;2022-09-09T11:49:04;26.10;46.90
68433;DHT22;55412;51.350;17.056;2022-09-09T11:51:33;26.00;47.70
68433;DHT22;55412;51.350;17.056;2022-09-09T11:54:28;26.00;47.40
68433;DHT22;55412;51.350;17.056;2022-09-09T11:56:58;25.90;47.50
68433;DHT22;55412;51.350;17.056;2022-09-09T11:59:31;25.90;48.50
68433;DHT22;55412;51.350;17.056;2022-09-09T12:02:14;26.00;48.40
68433;DHT22;55412;51.350;17.056;2022-09-09T12:12:36;25.70;47.40
68433;DHT22;55412;51.350;17.056;2022-09-09T12:17:55;25.70;48.20
68433;DHT22;55412;51.350;17.056;2022-09-09T12:20:38;25.80;48.20
68433;DHT22;55412;51.350;17.056;2022-09-09T12:23:22;25.60;47.60
68433;DHT22;55412;51.350;17.056;2022-09-09T12:29:05;25.40;47.80
68433;DHT22;55412;51.350;17.056;2022-09-09T12:32:00;25.40;48.50
68433;DHT22;55412;51.350;17.056;2022-09-09T12:35:09;25.40;48.30
68433;DHT22;55412;51.350;17.056;2022-09-09T12:40:24;25.50;49.60
68433;DHT22;55412;51.350;17.056;2022-09-09T12:42:50;25.60;48.40
68433;DHT22;55412;51.350;17.056;2022-09-09T12:45:22;25.60;47.50
68433;DHT22;55412;51.350;17.056;2022-09-09T12:50:30;25.70;47.70
68433;DHT22;55412;51.350;17.056;2022-09-09T12:53:33;25.60;48.20
68433;DHT22;55412;51.350;17.056;2022-09-09T12:56:04;25.50;48.60
68433;DHT22;55412;51.350;17.056;2022-09-09T12:58:33;25.40;47.10
68433;DHT22;55412;51.350;17.056;2022-09-09T13:01:01;25.40;49.40
68433;DHT22;55412;51.350;17.056;2022-09-09T13:03:32;25.50;49.70
68433;DHT22;55412;51.350;17.056;2022-09-09T13:06:19;25.60;49.60
68433;DHT22;55412;51.350;17.056;2022-09-09T13:08:49;25.70;50.10
68433;DHT22;55412;51.350;17.056;2022-09-09T13:12:01;25.70;48.70
68433;DHT22;55412;51.350;17.056;2022-09-09T13:14:44;25.60;47.90
68433;DHT22;55412;51.350;17.056;2022-09-09T13:17:22;25.50;46.70
68433;DHT22;55412;51.350;17.056;2022-09-09T13:19:50;25.40;47.60
68433;DHT22;55412;51.350;17.056;2022-09-09T13:22:35;25.40;48.70
68433;DHT22;55412;51.350;17.056;2022-09-09T13:27:40;25.30;46.70
68433;DHT22;55412;51.350;17.056;2022-09-09T13:30:40;25.20;46.80
68433;DHT22;55412;51.350;17.056;2022-09-09T13:36:09;25.10;48.40
68433;DHT22;55412;51.350;17.056;2022-09-09T13:38:52;25.10;50.20
68433;DHT22;55412;51.350;17.056;2022-09-09T13:41:34;25.10;49.30
68433;DHT22;55412;51.350;17.056;2022-09-09T13:44:03;25.20;49.60
68433;DHT22;55412;51.350;17.056;2022-09-09T13:46:39;25.10;48.50
68433;DHT22;55412;51.350;17.056;2022-09-09T13:51:45;25.10;49.80
68433;DHT22;55412;51.350;17.056;2022-09-09T13:54:16;25.10;49.30
68433;DHT22;55412;51.350;17.056;2022-09-09T13:56:44;25.10;47.70
68433;DHT22;55412;51.350;17.056;2022-09-09T13:59:13;25.10;47.50
68433;DHT22;55412;51.350;17.056;2022-09-09T14:01:45;25.00;48.40
68433;DHT22;55412;51.350;17.056;2022-09-09T14:04:12;25.10;48.70
68433;DHT22;55412;51.350;17.056;2022-09-09T14:06:38;25.00;47.20
68433;DHT22;55412;51.350;17.056;2022-09-09T14:09:06;25.00;48.60
68433;DHT22;55412;51.350;17.056;2022-09-09T14:11:33;25.00;48.90
68433;DHT22;55412;51.350;17.056;2022-09-09T14:13:59;25.00;47.50
68433;DHT22;55412;51.350;17.056;2022-09-09T14:16:26;24.90;46.60
68433;DHT22;55412;51.350;17.056;2022-09-09T14:18:53;24.90;48.80
68433;DHT22;55412;51.350;17.056;2022-09-09T14:21:22;25.00;45.60
68433;DHT22;55412;51.350;17.056;2022-09-09T14:23:48;25.00;46.60
68433;DHT22;55412;51.350;17.056;2022-09-09T14:26:15;25.10;48.00
68433;DHT22;55412;51.350;17.056;2022-09-09T14:28:41;25.10;48.50
68433;DHT22;55412;51.350;17.056;2022-09-09T14:31:07;25.10;48.10
68433;DHT22;55412;51.350;17.056;2022-09-09T14:33:33;25.20;48.40
68433;DHT22;55412;51.350;17.056;2022-09-09T14:36:02;25.20;48.50
68433;DHT22;55412;51.350;17.056;2022-09-09T14:38:31;25.00;48.10
68433;DHT22;55412;51.350;17.056;2022-09-09T14:41:02;25.00;48.30
68433;DHT22;55412;51.350;17.056;2022-09-09T14:43:29;24.90;48.30
68433;DHT22;55412;51.350;17.056;2022-09-09T14:45:56;24.80;47.20
68433;DHT22;55412;51.350;17.056;2022-09-09T14:48:22;24.80;48.40
68433;DHT22;55412;51.350;17.056;2022-09-09T14:50:48;24.80;49.40
68433;DHT22;55412;51.350;17.056;2022-09-09T14:53:16;24.80;48.00
68433;DHT22;55412;51.350;17.056;2022-09-09T14:55:42;24.80;47.40
68433;DHT22;55412;51.350;17.056;2022-09-09T14:58:08;24.70;48.50
68433;DHT22;55412;51.350;17.056;2022-09-09T15:00:34;24.70;47.70
68433;DHT22;55412;51.350;17.056;2022-09-09T15:03:01;24.60;48.30
68433;DHT22;55412;51.350;17.056;2022-09-09T15:05:27;24.50;48.20
68433;DHT22;55412;51.350;17.056;2022-09-09T15:07:53;24.40;48.80
68433;DHT22;55412;51.350;17.056;2022-09-09T15:10:19;24.40;49.60
68433;DHT22;55412;51.350;17.056;2022-09-09T15:12:46;24.40;50.30
68433;DHT22;55412;51.350;17.056;2022-09-09T15:15:12;24.30;50.50
68433;DHT22;55412;51.350;17.056;2022-09-09T15:17:38;24.30;51.00
68433;DHT22;55412;51.350;17.056;2022-09-09T15:20:05;24.20;51.40
68433;DHT22;55412;51.350;17.056;2022-09-09T15:22:32;24.20;51.80
68433;DHT22;55412;51.350;17.056;2022-09-09T15:24:59;24.20;51.50
68433;DHT22;55412;51.350;17.056;2022-09-09T15:27:25;24.20;51.10
68433;DHT22;55412;51.350;17.056;2022-09-09T15:29:51;24.20;52.60
68433;DHT22;55412;51.350;17.056;2022-09-09T15:32:17;24.20;52.40
68433;DHT22;55412;51.350;17.056;2022-09-09T15:34:44;24.20;51.40
68433;DHT22;55412;51.350;17.056;2022-09-09T15:37:11;24.10;51.70
68433;DHT22;55412;51.350;17.056;2022-09-09T15:39:39;24.10;52.10
68433;DHT22;55412;51.350;17.056;2022-09-09T15:42:06;24.10;52.90
68433;DHT22;55412;51.350;17.056;2022-09-09T15:44:41;24.10;52.40
68433;DHT22;55412;51.350;17.056;2022-09-09T15:47:10;24.00;53.50
68433;DHT22;55412;51.350;17.056;2022-09-09T15:49:38;24.00;54.80
68433;DHT22;55412;51.350;17.056;2022-09-09T15:52:04;24.00;54.50
68433;DHT22;55412;51.350;17.056;2022-09-09T15:54:33;23.90;54.10
68433;DHT22;55412;51.350;17.056;2022-09-09T15:57:02;23.90;54.30
68433;DHT22;55412;51.350;17.056;2022-09-09T15:59:30;23.90;54.60
68433;DHT22;55412;51.350;17.056;2022-09-09T16:01:58;23.80;55.30
68433;DHT22;55412;51.350;17.056;2022-09-09T16:04:26;23.80;56.50
68433;DHT22;55412;51.350;17.056;2022-09-09T16:06:59;23.70;57.80
68433;DHT22;55412;51.350;17.056;2022-09-09T16:09:29;23.60;55.30
68433;DHT22;55412;51.350;17.056;2022-09-09T16:12:01;23.50;56.80
68433;DHT22;55412;51.350;17.056;2022-09-09T16:14:28;23.50;57.00
68433;DHT22;55412;51.350;17.056;2022-09-09T16:16:59;23.40;56.80
68433;DHT22;55412;51.350;17.056;2022-09-09T16:19:26;23.30;56.80
68433;DHT22;55412;51.350;17.056;2022-09-09T16:21:52;23.30;57.00
68433;DHT22;55412;51.350;17.056;2022-09-09T16:24:19;23.20;58.10
68433;DHT22;55412;51.350;17.056;2022-09-09T16:26:48;23.20;59.30
68433;DHT22;55412;51.350;17.056;2022-09-09T16:29:16;23.10;60.90
68433;DHT22;55412;51.350;17.056;2022-09-09T16:31:45;23.10;60.50
68433;DHT22;55412;51.350;17.056;2022-09-09T16:34:13;23.00;60.10
68433;DHT22;55412;51.350;17.056;2022-09-09T16:36:41;22.90;60.90
68433;DHT22;55412;51.350;17.056;2022-09-09T16:39:13;22.90;61.40
68433;DHT22;55412;51.350;17.056;2022-09-09T16:41:43;22.80;61.10
68433;DHT22;55412;51.350;17.056;2022-09-09T16:44:12;22.80;61.30
68433;DHT22;55412;51.350;17.056;2022-09-09T16:46:40;22.70;62.20
68433;DHT22;55412;51.350;17.056;2022-09-09T16:49:10;22.70;61.20
68433;DHT22;55412;51.350;17.056;2022-09-09T16:51:43;22.60;61.20
68433;DHT22;55412;51.350;17.056;2022-09-09T16:54:13;22.50;61.90
68433;DHT22;55412;51.350;17.056;2022-09-09T16:56:43;22.40;62.00
68433;DHT22;55412;51.350;17.056;2022-09-09T16:59:15;22.30;61.90
68433;DHT22;55412;51.350;17.056;2022-09-09T17:01:47;22.30;61.50
68433;DHT22;55412;51.350;17.056;2022-09-09T17:04:22;22.20;61.60
68433;DHT22;55412;51.350;17.056;2022-09-09T17:06:53;22.20;62.50
68433;DHT22;55412;51.350;17.056;2022-09-09T17:09:21;22.10;62.10
68433;DHT22;55412;51.350;17.056;2022-09-09T17:11:48;22.00;62.30
68433;DHT22;55412;51.350;17.056;2022-09-09T17:14:18;21.90;62.60
68433;DHT22;55412;51.350;17.056;2022-09-09T17:16:45;21.80;63.10
68433;DHT22;55412;51.350;17.056;2022-09-09T17:19:12;21.70;63.40
68433;DHT22;55412;51.350;17.056;2022-09-09T17:21:39;21.60;63.30
68433;DHT22;55412;51.350;17.056;2022-09-09T17:24:05;21.60;63.40
68433;DHT22;55412;51.350;17.056;2022-09-09T17:26:33;21.50;63.20
68433;DHT22;55412;51.350;17.056;2022-09-09T17:29:01;21.40;63.50
68433;DHT22;55412;51.350;17.056;2022-09-09T17:31:29;21.40;64.20
68433;DHT22;55412;51.350;17.056;2022-09-09T17:33:56;21.40;64.20
68433;DHT22;55412;51.350;17.056;2022-09-09T17:36:30;21.30;64.20
68433;DHT22;55412;51.350;17.056;2022-09-09T17:38:59;21.30;64.00
68433;DHT22;55412;51.350;17.056;2022-09-09T17:41:37;21.20;63.50
68433;DHT22;55412;51.350;17.056;2022-09-09T17:44:05;21.10;63.20